Time;durP1;ratioP1;P1;durP2;ratioP2;P2;SDS_P1;SDS_P2;PMS_P1;PMS_P2;Temp;Humidity;BMP_temperature;BMP_pressure;BME280_temperature;BME280_humidity;BME280_pressure;Samples;Min_cycle;Max_cycle;Signal;HPM_P1;HPM_P2
2020/12/21 00:00:52;;;;;;;19.60;6.45;;;;;;;;;;5053885;28;20036;-88
2020/12/21 00:03:18;;;;;;;15.38;5.82;;;;;;;;;;5054280;28;20013;-87
2020/12/21 00:05:44;;;;;;;24.33;7.53;;;;;;;;;;5053499;28;20080;-89
2020/12/21 00:08:10;;;;;;;18.67;6.75;;;;;;;;;;5053577;28;20416;-87
2020/12/21 00:10:37;;;;;;;22.85;6.55;;;;;;;;;;5055438;28;20113;-88
2020/12/21 00:13:03;;;;;;;20.38;6.10;;;;;;;;;;5054451;28;20082;-89
2020/12/21 00:15:29;;;;;;;22.58;7.28;;;;;;;;;;5052494;28;20079;-88
2020/12/21 00:17:55;;;;;;;19.40;7.03;;;;;;;;;;5052734;28;20625;-88
2020/12/21 00:20:21;;;;;;;17.85;7.70;;;;;;;;;;5053485;28;20017;-89
2020/12/21 00:22:47;;;;;;;16.98;6.10;;;;;;;;;;5053045;28;20435;-86
2020/12/21 00:25:13;;;;;;;16.55;7.15;;;;;;;;;;5052645;28;20039;-88
2020/12/21 00:27:39;;;;;;;22.60;6.25;;;;;;;;;;5053004;28;20090;-88
2020/12/21 00:30:05;;;;;;;15.38;6.15;;;;;;;;;;5036444;28;20051;-86
2020/12/21 00:32:33;;;;;;;24.88;6.82;;;;;;;;;;5053092;28;20024;-87
2020/12/21 00:34:59;;;;;;;26.60;7.47;;;;;;;;;;5051817;28;20480;-85
2020/12/21 00:37:25;;;;;;;15.75;6.10;;;;;;;;;;5051180;28;20027;-84
2020/12/21 00:39:51;;;;;;;20.73;6.88;;;;;;;;;;5050565;28;20067;-85
2020/12/21 00:42:17;;;;;;;16.42;6.00;;;;;;;;;;5051273;28;20020;-87
2020/12/21 00:44:43;;;;;;;24.85;7.32;;;;;;;;;;5050817;28;20163;-87
2020/12/21 00:47:10;;;;;;;21.13;6.90;;;;;;;;;;5054272;28;20492;-87
2020/12/21 00:49:36;;;;;;;25.15;6.63;;;;;;;;;;5052941;28;20407;-88
2020/12/21 00:52:02;;;;;;;19.85;7.20;;;;;;;;;;5052935;28;20029;-88
2020/12/21 00:54:28;;;;;;;19.20;6.65;;;;;;;;;;5052456;28;20100;-88
2020/12/21 00:56:55;;;;;;;21.67;7.55;;;;;;;;;;5052818;28;20472;-86
2020/12/21 00:59:21;;;;;;;22.90;6.35;;;;;;;;;;5052142;28;20021;-86
2020/12/21 01:01:47;;;;;;;25.08;6.70;;;;;;;;;;5052050;28;20067;-87
2020/12/21 01:04:13;;;;;;;16.80;6.55;;;;;;;;;;5058969;28;20055;-89
2020/12/21 01:06:39;;;;;;;17.23;6.82;;;;;;;;;;5058763;28;20025;-88
2020/12/21 01:09:10;;;;;;;21.25;7.35;;;;;;;;;;5058946;28;20021;-87
2020/12/21 01:11:36;;;;;;;13.55;5.47;;;;;;;;;;5057052;28;20364;-89
2020/12/21 01:14:03;;;;;;;24.67;8.00;;;;;;;;;;5059664;28;20020;-88
2020/12/21 01:16:29;;;;;;;18.25;6.85;;;;;;;;;;5058778;28;20017;-87
2020/12/21 01:18:55;;;;;;;17.05;5.15;;;;;;;;;;5057526;28;20020;-88
2020/12/21 01:21:25;;;;;;;21.98;6.90;;;;;;;;;;5057246;28;20021;-88
2020/12/21 01:23:52;;;;;;;21.10;6.95;;;;;;;;;;5057005;28;20437;-89
2020/12/21 01:26:18;;;;;;;25.17;6.90;;;;;;;;;;5057052;28;20021;-88
2020/12/21 01:28:44;;;;;;;17.13;6.80;;;;;;;;;;5056953;28;20028;-88
2020/12/21 01:31:10;;;;;;;16.52;6.47;;;;;;;;;;5055204;28;20064;-86
2020/12/21 01:33:36;;;;;;;21.73;8.30;;;;;;;;;;5055194;28;20040;-85
2020/12/21 01:36:02;;;;;;;23.85;6.72;;;;;;;;;;5056383;28;20021;-85
2020/12/21 01:38:28;;;;;;;21.30;8.07;;;;;;;;;;5054907;28;20453;-86
2020/12/21 01:40:54;;;;;;;20.58;5.63;;;;;;;;;;5054916;28;20025;-87
2020/12/21 01:43:20;;;;;;;22.10;6.72;;;;;;;;;;5055991;28;20029;-87
2020/12/21 01:45:46;;;;;;;15.95;5.47;;;;;;;;;;5057120;28;20133;-87
2020/12/21 01:48:12;;;;;;;22.15;6.00;;;;;;;;;;5058266;28;20033;-87
2020/12/21 01:50:38;;;;;;;24.23;6.20;;;;;;;;;;5056437;28;20119;-86
2020/12/21 01:53:09;;;;;;;26.23;7.78;;;;;;;;;;5056856;28;20017;-87
2020/12/21 01:55:36;;;;;;;20.58;6.43;;;;;;;;;;5056691;28;20024;-88
2020/12/21 01:58:02;;;;;;;24.23;6.90;;;;;;;;;;5056915;28;20104;-87
2020/12/21 02:00:29;;;;;;;21.48;6.15;;;;;;;;;;5055175;28;20453;-84
2020/12/21 02:02:55;;;;;;;24.27;7.38;;;;;;;;;;5054470;28;20021;-84
2020/12/21 02:05:21;;;;;;;22.40;6.30;;;;;;;;;;5056487;28;20017;-86
2020/12/21 02:07:47;;;;;;;25.45;7.85;;;;;;;;;;5055395;28;20063;-85
2020/12/21 02:10:14;;;;;;;19.77;6.20;;;;;;;;;;5054594;28;20017;-86
2020/12/21 02:12:40;;;;;;;22.30;6.90;;;;;;;;;;5055225;28;20029;-86
2020/12/21 02:15:06;;;;;;;28.17;8.15;;;;;;;;;;5055485;28;20053;-87
2020/12/21 02:17:32;;;;;;;21.83;6.13;;;;;;;;;;5056603;28;20017;-87
2020/12/21 02:19:58;;;;;;;24.88;7.82;;;;;;;;;;5057356;28;20445;-86
2020/12/21 02:22:24;;;;;;;22.90;6.18;;;;;;;;;;5057931;28;20492;-87
2020/12/21 02:24:50;;;;;;;19.33;5.40;;;;;;;;;;5055556;28;20031;-86
2020/12/21 02:27:16;;;;;;;19.02;6.00;;;;;;;;;;5055290;28;20031;-86
2020/12/21 02:29:42;;;;;;;19.02;5.93;;;;;;;;;;5053556;28;20080;-87
2020/12/21 02:32:08;;;;;;;25.02;7.03;;;;;;;;;;5055508;28;20471;-87
2020/12/21 02:34:34;;;;;;;15.88;5.60;;;;;;;;;;5055942;28;20025;-86
2020/12/21 02:37:00;;;;;;;25.63;7.10;;;;;;;;;;5056182;28;20127;-87
2020/12/21 02:39:26;;;;;;;18.38;5.50;;;;;;;;;;5055849;28;20490;-87
2020/12/21 02:41:53;;;;;;;20.90;5.40;;;;;;;;;;5055020;28;20016;-86
2020/12/21 02:44:19;;;;;;;20.15;5.10;;;;;;;;;;5054552;28;20021;-86
2020/12/21 02:46:45;;;;;;;23.15;7.07;;;;;;;;;;5054116;28;20388;-85
2020/12/21 02:49:13;;;;;;;24.45;6.07;;;;;;;;;;5055494;28;20021;-86
2020/12/21 02:51:39;;;;;;;23.58;6.15;;;;;;;;;;5053798;28;20078;-86
2020/12/21 02:54:05;;;;;;;13.85;5.38;;;;;;;;;;5054373;28;20025;-86
2020/12/21 02:56:31;;;;;;;32.63;7.68;;;;;;;;;;5053420;28;20021;-85
2020/12/21 02:58:57;;;;;;;21.13;6.40;;;;;;;;;;5053829;28;20052;-87
2020/12/21 03:01:23;;;;;;;15.38;5.47;;;;;;;;;;5055443;28;20043;-86
2020/12/21 03:03:49;;;;;;;26.58;6.60;;;;;;;;;;5053956;28;20025;-85
2020/12/21 03:06:15;;;;;;;30.23;6.53;;;;;;;;;;5054276;28;20499;-87
2020/12/21 03:08:41;;;;;;;21.70;5.60;;;;;;;;;;5053996;28;20047;-86
2020/12/21 03:11:10;;;;;;;26.13;6.75;;;;;;;;;;5054343;28;20024;-87
2020/12/21 03:13:37;;;;;;;23.63;6.53;;;;;;;;;;5054397;28;20012;-87
2020/12/21 03:16:03;;;;;;;18.90;5.63;;;;;;;;;;5053714;28;20029;-86
2020/12/21 03:18:29;;;;;;;14.57;5.13;;;;;;;;;;5052908;28;20055;-86
2020/12/21 03:20:55;;;;;;;15.90;5.20;;;;;;;;;;5053924;28;20020;-85
2020/12/21 03:23:21;;;;;;;26.48;5.95;;;;;;;;;;5052810;28;20071;-86
2020/12/21 03:25:47;;;;;;;16.80;5.72;;;;;;;;;;5065943;28;20024;-87
2020/12/21 03:28:14;;;;;;;17.88;6.32;;;;;;;;;;5073118;28;20016;-87
2020/12/21 03:30:40;;;;;;;12.88;4.10;;;;;;;;;;5072155;28;20057;-87
2020/12/21 03:33:06;;;;;;;15.93;4.82;;;;;;;;;;5073606;28;20017;-87
2020/12/21 03:35:32;;;;;;;17.80;5.63;;;;;;;;;;5073480;28;20017;-87
2020/12/21 03:37:58;;;;;;;15.05;5.13;;;;;;;;;;5074588;28;20017;-86
2020/12/21 03:40:24;;;;;;;17.67;5.03;;;;;;;;;;5074902;28;20009;-86
2020/12/21 03:42:50;;;;;;;20.67;5.75;;;;;;;;;;5074747;28;20036;-86
2020/12/21 03:45:16;;;;;;;22.45;5.65;;;;;;;;;;5072811;28;20337;-84
2020/12/21 03:47:42;;;;;;;16.85;5.38;;;;;;;;;;5071642;28;20041;-84
2020/12/21 03:50:08;;;;;;;19.08;4.95;;;;;;;;;;5073866;28;20082;-88
2020/12/21 03:52:34;;;;;;;17.95;5.45;;;;;;;;;;5073813;28;20013;-87
2020/12/21 03:55:00;;;;;;;18.95;5.45;;;;;;;;;;5074455;28;20540;-87
2020/12/21 03:57:26;;;;;;;23.50;5.70;;;;;;;;;;5075215;28;20017;-88
2020/12/21 03:59:52;;;;;;;15.48;5.55;;;;;;;;;;5076329;28;20349;-88
2020/12/21 04:02:18;;;;;;;18.13;5.20;;;;;;;;;;5075165;28;20058;-88
2020/12/21 04:04:44;;;;;;;16.05;6.07;;;;;;;;;;5075029;28;20093;-87
2020/12/21 04:07:10;;;;;;;18.77;4.95;;;;;;;;;;5075399;28;20032;-87
2020/12/21 04:09:36;;;;;;;14.10;5.82;;;;;;;;;;5075154;28;20020;-87
2020/12/21 04:12:02;;;;;;;13.82;4.70;;;;;;;;;;5074193;28;20376;-88
2020/12/21 04:14:28;;;;;;;20.02;6.47;;;;;;;;;;5073050;28;20048;-87
2020/12/21 04:16:54;;;;;;;19.98;5.03;;;;;;;;;;5075020;28;20040;-88
2020/12/21 04:19:20;;;;;;;18.30;5.53;;;;;;;;;;5075035;28;20048;-88
2020/12/21 04:21:46;;;;;;;18.17;5.07;;;;;;;;;;5076345;28;20062;-88
2020/12/21 04:24:12;;;;;;;19.45;5.95;;;;;;;;;;5076280;28;20013;-88
2020/12/21 04:26:38;;;;;;;15.43;4.32;;;;;;;;;;5055186;28;20074;-88
2020/12/21 04:29:04;;;;;;;20.98;6.38;;;;;;;;;;5055259;28;20408;-88
2020/12/21 04:31:30;;;;;;;17.88;5.47;;;;;;;;;;5054898;28;20523;-88
2020/12/21 04:33:56;;;;;;;20.52;5.88;;;;;;;;;;5054711;28;20021;-88
2020/12/21 04:36:22;;;;;;;14.10;4.90;;;;;;;;;;5054743;28;20024;-87
2020/12/21 04:38:53;;;;;;;18.42;5.38;;;;;;;;;;5053935;28;20021;-87
2020/12/21 04:41:19;;;;;;;18.05;6.30;;;;;;;;;;5054523;28;20018;-88
2020/12/21 04:43:45;;;;;;;15.00;4.65;;;;;;;;;;5054562;28;20583;-88
2020/12/21 04:46:11;;;;;;;20.70;5.53;;;;;;;;;;5054791;28;20025;-88
2020/12/21 04:48:39;;;;;;;13.38;5.53;;;;;;;;;;5054831;28;20142;-87
2020/12/21 04:51:05;;;;;;;14.48;4.70;;;;;;;;;;5054291;28;20123;-87
2020/12/21 04:53:32;;;;;;;18.80;4.65;;;;;;;;;;5053855;28;20017;-88
2020/12/21 04:55:57;;;;;;;22.35;6.28;;;;;;;;;;5053005;28;20408;-88
2020/12/21 04:58:24;;;;;;;19.52;5.00;;;;;;;;;;5052969;28;20025;-87
2020/12/21 05:00:49;;;;;;;22.15;5.07;;;;;;;;;;5053166;28;20047;-87
2020/12/21 05:03:16;;;;;;;18.15;4.00;;;;;;;;;;5054169;28;20017;-88
2020/12/21 05:05:42;;;;;;;8.95;2.85;;;;;;;;;;5053504;28;20457;-87
2020/12/21 05:08:11;;;;;;;14.45;3.75;;;;;;;;;;5053091;28;20017;-86
2020/12/21 05:10:38;;;;;;;17.95;4.30;;;;;;;;;;5053431;28;20028;-86
2020/12/21 05:13:05;;;;;;;15.18;4.95;;;;;;;;;;5051583;28;20330;-86
2020/12/21 05:15:31;;;;;;;18.73;4.80;;;;;;;;;;5053137;28;20027;-87
2020/12/21 05:18:10;;;;;;;20.70;5.55;;;;;;;;;;5051194;28;20025;-87
2020/12/21 05:20:40;;;;;;;18.13;4.20;;;;;;;;;;5054061;28;20013;-87
2020/12/21 05:23:07;;;;;;;13.25;4.28;;;;;;;;;;5054838;28;20719;-87
2020/12/21 05:25:33;;;;;;;11.07;5.15;;;;;;;;;;5056075;28;20032;-86
2020/12/21 05:28:12;;;;;;;13.60;4.50;;;;;;;;;;5052644;28;20029;-86
2020/12/21 05:31:11;;;;;;;13.07;3.95;;;;;;;;;;5051962;28;20045;-85
2020/12/21 05:33:41;;;;;;;20.60;6.20;;;;;;;;;;5050725;28;20420;-85
2020/12/21 05:36:09;;;;;;;14.27;5.38;;;;;;;;;;5051831;28;20091;-88
2020/12/21 05:38:35;;;;;;;14.60;4.18;;;;;;;;;;5053578;28;20017;-88
2020/12/21 05:41:08;;;;;;;21.27;4.90;;;;;;;;;;5053317;28;20481;-88
2020/12/21 05:43:36;;;;;;;15.20;4.40;;;;;;;;;;5053761;28;20021;-87
2020/12/21 05:46:24;;;;;;;16.73;4.43;;;;;;;;;;5052974;28;20110;-87
2020/12/21 05:48:55;;;;;;;8.52;3.03;;;;;;;;;;5053570;28;20021;-87
2020/12/21 05:51:22;;;;;;;19.02;5.07;;;;;;;;;;5056709;28;20365;-88
2020/12/21 05:53:48;;;;;;;11.85;4.32;;;;;;;;;;5057045;28;20021;-88
2020/12/21 05:56:14;;;;;;;15.20;5.05;;;;;;;;;;5055600;28;20020;-86
2020/12/21 05:58:41;;;;;;;16.55;3.90;;;;;;;;;;5055523;28;20350;-85
2020/12/21 06:01:11;;;;;;;14.13;3.80;;;;;;;;;;5053992;28;20020;-85
2020/12/21 06:03:37;;;;;;;8.43;3.28;;;;;;;;;;5054654;28;20528;-86
2020/12/21 06:06:07;;;;;;;15.23;4.30;;;;;;;;;;5055086;28;20047;-85
2020/12/21 06:08:35;;;;;;;21.25;4.97;;;;;;;;;;5055466;28;20032;-86
2020/12/21 06:11:08;;;;;;;15.65;4.38;;;;;;;;;;5054797;28;20108;-87
2020/12/21 06:13:37;;;;;;;16.27;3.50;;;;;;;;;;5054994;28;20162;-86
2020/12/21 06:16:03;;;;;;;13.40;4.65;;;;;;;;;;5052383;28;20075;-86
2020/12/21 06:18:29;;;;;;;19.15;4.45;;;;;;;;;;5053110;28;20094;-86
2020/12/21 06:20:55;;;;;;;20.92;4.95;;;;;;;;;;5054459;28;20398;-85
2020/12/21 06:23:29;;;;;;;13.07;4.90;;;;;;;;;;5054750;28;20055;-85
2020/12/21 06:26:06;;;;;;;20.52;4.95;;;;;;;;;;5056489;28;20053;-88
2020/12/21 06:28:32;;;;;;;12.73;4.03;;;;;;;;;;5057232;28;20024;-88
2020/12/21 06:30:58;;;;;;;11.05;3.00;;;;;;;;;;5056374;28;20059;-89
2020/12/21 06:33:25;;;;;;;13.93;3.78;;;;;;;;;;5056442;28;20021;-85
2020/12/21 06:36:00;;;;;;;14.60;4.00;;;;;;;;;;5050571;28;20071;-85
2020/12/21 06:38:26;;;;;;;14.35;4.10;;;;;;;;;;5051915;28;20025;-87
2020/12/21 06:40:52;;;;;;;16.35;3.97;;;;;;;;;;5051116;28;20437;-86
2020/12/21 06:43:18;;;;;;;16.63;3.72;;;;;;;;;;5052190;28;20029;-86
2020/12/21 06:45:44;;;;;;;12.40;4.32;;;;;;;;;;5054723;28;20094;-86
2020/12/21 06:48:10;;;;;;;19.55;5.22;;;;;;;;;;5054338;28;20186;-87
2020/12/21 06:50:37;;;;;;;11.55;4.72;;;;;;;;;;5053456;28;20028;-86
2020/12/21 06:53:06;;;;;;;15.35;3.97;;;;;;;;;;5053547;28;20013;-87
2020/12/21 06:55:33;;;;;;;23.92;4.50;;;;;;;;;;5054256;28;20111;-88
2020/12/21 06:57:59;;;;;;;13.07;4.13;;;;;;;;;;5057400;28;20024;-88
2020/12/21 07:00:25;;;;;;;12.88;3.90;;;;;;;;;;5052370;28;20021;-87
2020/12/21 07:02:51;;;;;;;15.25;4.72;;;;;;;;;;5054729;28;20465;-88
2020/12/21 07:05:18;;;;;;;17.02;3.72;;;;;;;;;;5056061;28;20025;-87
2020/12/21 07:07:43;;;;;;;16.73;4.13;;;;;;;;;;5055977;28;20023;-88
2020/12/21 07:10:13;;;;;;;10.98;3.83;;;;;;;;;;5056031;28;20021;-88
2020/12/21 07:12:39;;;;;;;19.67;4.57;;;;;;;;;;5056108;28;20017;-88
2020/12/21 07:15:05;;;;;;;12.32;4.00;;;;;;;;;;5055910;28;20092;-88
2020/12/21 07:17:33;;;;;;;17.90;4.85;;;;;;;;;;5055977;28;20071;-89
2020/12/21 07:19:59;;;;;;;8.50;3.95;;;;;;;;;;5056152;28;20028;-89
2020/12/21 07:22:25;;;;;;;13.88;4.07;;;;;;;;;;5056147;28;20025;-88
2020/12/21 07:24:52;;;;;;;16.67;4.55;;;;;;;;;;5061791;28;20431;-88
2020/12/21 07:27:18;;;;;;;22.30;5.25;;;;;;;;;;5075875;28;20086;-87
2020/12/21 07:29:44;;;;;;;16.60;5.03;;;;;;;;;;5074573;28;20044;-87
2020/12/21 07:32:10;;;;;;;18.80;4.80;;;;;;;;;;5075398;28;20013;-88
2020/12/21 07:34:37;;;;;;;18.50;5.38;;;;;;;;;;5075334;28;20024;-87
2020/12/21 07:37:07;;;;;;;23.65;6.13;;;;;;;;;;5075064;28;20531;-88
2020/12/21 07:39:33;;;;;;;15.73;4.47;;;;;;;;;;5074849;28;20017;-87
2020/12/21 07:42:03;;;;;;;18.30;5.38;;;;;;;;;;5074446;28;20519;-87
2020/12/21 07:44:29;;;;;;;;;;;;;;;;;;5075654;28;20457;-89
2020/12/21 07:47:00;;;;;;;12.30;4.03;;;;;;;;;;5076179;28;19911;-89
2020/12/21 07:49:27;;;;;;;12.63;5.13;;;;;;;;;;5077254;28;20052;-89
2020/12/21 07:51:58;;;;;;;18.30;5.70;;;;;;;;;;5075473;28;20017;-89
2020/12/21 07:54:25;;;;;;;18.02;5.93;;;;;;;;;;5075450;28;20024;-89
2020/12/21 07:57:01;;;;;;;21.80;5.43;;;;;;;;;;5075049;28;20453;-87
2020/12/21 07:59:27;;;;;;;16.27;5.63;;;;;;;;;;5074938;28;20024;-90
2020/12/21 08:01:58;;;;;;;24.00;5.78;;;;;;;;;;5074463;28;20338;-88
2020/12/21 08:04:25;;;;;;;19.00;6.03;;;;;;;;;;5074986;28;20108;-86
2020/12/21 08:06:51;;;;;;;13.57;5.25;;;;;;;;;;5074715;28;20021;-88
2020/12/21 08:09:18;;;;;;;17.02;5.32;;;;;;;;;;5074394;28;20166;-89
2020/12/21 08:11:45;;;;;;;11.45;4.97;;;;;;;;;;5075136;28;20012;-89
2020/12/21 08:14:17;;;;;;;15.82;5.28;;;;;;;;;;5075129;28;20025;-89
2020/12/21 08:16:43;;;;;;;12.23;5.30;;;;;;;;;;5071815;28;20020;-82
2020/12/21 08:19:13;;;;;;;20.65;5.80;;;;;;;;;;5067851;28;20121;-84
2020/12/21 08:21:39;;;;;;;13.40;4.80;;;;;;;;;;5064907;28;20033;-84
2020/12/21 08:24:05;;;;;;;21.58;6.25;;;;;;;;;;5059397;28;20041;-84
2020/12/21 08:26:35;;;;;;;14.20;4.55;;;;;;;;;;5058473;28;20345;-83
2020/12/21 08:29:02;;;;;;;13.25;4.13;;;;;;;;;;5053475;28;20040;-83
2020/12/21 08:31:27;;;;;;;13.75;4.82;;;;;;;;;;5050980;28;20056;-83
2020/12/21 08:34:04;;;;;;;11.95;4.00;;;;;;;;;;5052264;28;20009;-83
2020/12/21 08:36:37;;;;;;;11.07;3.67;;;;;;;;;;5051477;28;20021;-83
2020/12/21 08:39:09;;;;;;;12.77;3.45;;;;;;;;;;5050104;28;20021;-84
2020/12/21 08:41:37;;;;;;;12.35;4.25;;;;;;;;;;5050463;28;20028;-84
2020/12/21 08:44:06;;;;;;;19.33;4.72;;;;;;;;;;5051345;28;20018;-84
2020/12/21 08:46:32;;;;;;;17.17;3.72;;;;;;;;;;5050418;28;20024;-84
2020/12/21 08:48:58;;;;;;;12.20;3.25;;;;;;;;;;5051408;28;20037;-83
2020/12/21 08:51:24;;;;;;;10.80;2.88;;;;;;;;;;5052546;28;20091;-86
2020/12/21 08:53:52;;;;;;;11.13;3.58;;;;;;;;;;5052103;28;20377;-83
2020/12/21 08:56:19;;;;;;;9.27;3.92;;;;;;;;;;5050002;28;20104;-83
2020/12/21 08:58:45;;;;;;;8.82;2.85;;;;;;;;;;5050119;28;20063;-82
2020/12/21 09:01:11;;;;;;;15.38;5.20;;;;;;;;;;5050926;28;20056;-84
2020/12/21 09:03:37;;;;;;;12.45;3.78;;;;;;;;;;5051265;28;20106;-83
2020/12/21 09:06:03;;;;;;;12.18;3.30;;;;;;;;;;5049694;28;20033;-83
2020/12/21 09:08:29;;;;;;;15.77;4.35;;;;;;;;;;5050215;28;20021;-82
2020/12/21 09:10:56;;;;;;;17.45;3.67;;;;;;;;;;5050132;28;20017;-82
2020/12/21 09:13:22;;;;;;;14.20;3.42;;;;;;;;;;5049931;28;20079;-82
2020/12/21 09:15:48;;;;;;;15.00;3.15;;;;;;;;;;5051263;28;20476;-81
2020/12/21 09:18:15;;;;;;;13.57;3.13;;;;;;;;;;5051036;28;20056;-81
2020/12/21 09:20:45;;;;;;;11.13;2.90;;;;;;;;;;5049970;28;20017;-81
2020/12/21 09:23:11;;;;;;;11.43;3.43;;;;;;;;;;5051337;28;20024;-81
2020/12/21 09:25:37;;;;;;;12.50;3.60;;;;;;;;;;5054016;28;20279;-86
2020/12/21 09:28:03;;;;;;;8.65;3.20;;;;;;;;;;5054177;28;20039;-86
2020/12/21 09:30:30;;;;;;;11.98;3.25;;;;;;;;;;5053471;28;20385;-82
2020/12/21 09:32:56;;;;;;;12.20;3.33;;;;;;;;;;5053214;28;20025;-81
2020/12/21 09:35:22;;;;;;;9.38;4.13;;;;;;;;;;5053352;28;20021;-82
2020/12/21 09:37:48;;;;;;;10.70;3.15;;;;;;;;;;5053528;28;20020;-85
2020/12/21 09:40:14;;;;;;;14.13;3.92;;;;;;;;;;5053420;28;20071;-81
2020/12/21 09:42:40;;;;;;;7.72;2.78;;;;;;;;;;5053470;28;20075;-81
2020/12/21 09:45:06;;;;;;;12.20;3.20;;;;;;;;;;5052974;28;20120;-81
2020/12/21 09:47:32;;;;;;;8.60;2.92;;;;;;;;;;5053223;28;20029;-81
2020/12/21 09:49:58;;;;;;;10.50;3.15;;;;;;;;;;5053381;28;20021;-82
2020/12/21 09:52:24;;;;;;;11.57;2.90;;;;;;;;;;5053450;28;20078;-81
2020/12/21 09:54:50;;;;;;;12.93;3.05;;;;;;;;;;5053231;28;20031;-79
2020/12/21 09:57:16;;;;;;;13.07;3.42;;;;;;;;;;5052984;28;20021;-79
2020/12/21 09:59:42;;;;;;;13.00;3.60;;;;;;;;;;5053241;28;20194;-79
2020/12/21 10:02:08;;;;;;;13.55;3.22;;;;;;;;;;5052863;28;20469;-81
2020/12/21 10:04:34;;;;;;;17.80;3.28;;;;;;;;;;5053052;28;20083;-75
2020/12/21 10:07:01;;;;;;;10.60;3.08;;;;;;;;;;5053965;28;20025;-75
2020/12/21 10:09:27;;;;;;;9.00;2.30;;;;;;;;;;5052918;28;20096;-80
2020/12/21 10:11:53;;;;;;;13.80;3.05;;;;;;;;;;5052922;28;20132;-79
2020/12/21 10:14:19;;;;;;;9.55;3.75;;;;;;;;;;5053976;28;20048;-79
2020/12/21 10:16:46;;;;;;;11.13;3.63;;;;;;;;;;5053967;28;20074;-79
2020/12/21 10:19:12;;;;;;;13.43;3.00;;;;;;;;;;5052669;28;20020;-80
2020/12/21 10:21:38;;;;;;;14.98;3.75;;;;;;;;;;5052905;28;20017;-80
2020/12/21 10:24:04;;;;;;;11.05;3.42;;;;;;;;;;5052471;28;20361;-85
2020/12/21 10:26:30;;;;;;;8.95;3.45;;;;;;;;;;5052446;28;20025;-79
2020/12/21 10:28:56;;;;;;;9.95;2.60;;;;;;;;;;5052573;28;20021;-80
2020/12/21 10:31:22;;;;;;;12.20;3.10;;;;;;;;;;5051845;28;20076;-79
2020/12/21 10:33:48;;;;;;;9.55;2.55;;;;;;;;;;5052604;28;20461;-79
2020/12/21 10:36:17;;;;;;;11.85;3.42;;;;;;;;;;5051410;28;20027;-80
2020/12/21 10:38:43;;;;;;;13.80;3.03;;;;;;;;;;5052310;28;20444;-80
2020/12/21 10:41:09;;;;;;;13.48;3.58;;;;;;;;;;5052046;28;20036;-78
2020/12/21 10:43:35;;;;;;;13.05;3.42;;;;;;;;;;5052057;28;20025;-76
2020/12/21 10:46:01;;;;;;;10.05;3.35;;;;;;;;;;5053256;28;20020;-80
2020/12/21 10:48:27;;;;;;;9.95;3.45;;;;;;;;;;5053576;28;20071;-78
2020/12/21 10:50:54;;;;;;;19.30;3.95;;;;;;;;;;5053313;28;20078;-79
2020/12/21 10:53:21;;;;;;;12.32;4.10;;;;;;;;;;5051727;28;20218;-79
2020/12/21 10:55:47;;;;;;;13.35;2.88;;;;;;;;;;5051983;28;20461;-76
2020/12/21 10:58:12;;;;;;;13.80;3.33;;;8.50;87.00;;;;;;5050500;28;20032;-78
2020/12/21 11:00:38;;;;;;;13.38;3.72;;;8.60;87.70;;;;;;5050674;28;20075;-77
2020/12/21 11:03:03;;;;;;;12.10;4.07;;;8.60;87.80;;;;;;5050012;28;20025;-79
2020/12/21 11:05:29;;;;;;;10.02;3.35;;;8.60;87.90;;;;;;5051756;28;20025;-79
2020/12/21 11:07:55;;;;;;;10.98;3.60;;;8.60;88.00;;;;;;5051920;28;20044;-80
2020/12/21 11:10:20;;;;;;;14.05;3.67;;;8.60;88.30;;;;;;5051563;28;20133;-80
2020/12/21 11:12:46;;;;;;;15.20;4.78;;;8.60;88.50;;;;;;5051558;28;20056;-78
2020/12/21 11:15:12;;;;;;;10.38;3.25;;;8.60;88.90;;;;;;5051508;28;20021;-79
2020/12/21 11:17:37;;;;;;;18.80;4.82;;;8.60;89.00;;;;;;5051872;28;20037;-79
2020/12/21 11:20:03;;;;;;;11.02;3.00;;;8.60;89.00;;;;;;5051369;28;20023;-79
2020/12/21 11:22:29;;;;;;;18.23;3.70;;;8.60;89.30;;;;;;5060649;28;20016;-78
2020/12/21 11:24:54;;;;;;;16.48;4.43;;;8.50;89.60;;;;;;5058184;28;20082;-79
2020/12/21 11:27:21;;;;;;;16.83;4.57;;;8.60;89.90;;;;;;5059968;28;20024;-79
2020/12/21 11:29:46;;;;;;;13.18;4.18;;;8.50;90.00;;;;;;5061675;28;20037;-79
2020/12/21 11:32:12;;;;;;;13.00;3.80;;;8.50;90.00;;;;;;5058915;28;20019;-79
2020/12/21 11:34:37;;;;;;;11.98;3.35;;;8.50;90.00;;;;;;5061124;28;20027;-79
2020/12/21 11:37:03;;;;;;;15.50;4.15;;;8.50;90.20;;;;;;5059418;28;20016;-80
2020/12/21 11:39:28;;;;;;;11.73;3.90;;;8.50;90.10;;;;;;5061596;28;20334;-80
2020/12/21 11:41:54;;;;;;;14.98;4.75;;;8.40;90.30;;;;;;5061586;28;20092;-80
2020/12/21 11:44:19;;;;;;;15.35;3.53;;;8.40;90.40;;;;;;5059664;28;20334;-80
2020/12/21 11:46:46;;;;;;;11.27;4.78;;;8.40;90.30;;;;;;5061518;28;20461;-78
2020/12/21 11:49:12;;;;;;;21.42;4.55;;;8.40;90.40;;;;;;5061367;28;20091;-78
2020/12/21 11:51:37;;;;;;;16.00;5.28;;;8.40;90.50;;;;;;5061583;28;20103;-79
2020/12/21 11:54:03;;;;;;;17.67;5.35;;;8.40;90.60;;;;;;5058655;28;20103;-79
2020/12/21 11:56:28;;;;;;;14.90;4.63;;;8.40;90.60;;;;;;5067382;28;20030;-80
2020/12/21 11:58:54;;;;;;;10.13;4.50;;;8.40;90.60;;;;;;5071396;28;20056;-80
2020/12/21 12:01:19;;;;;;;12.45;4.10;;;8.40;90.30;;;;;;5071251;28;20048;-80
2020/12/21 12:03:45;;;;;;;11.10;3.70;;;8.40;90.60;;;;;;5071200;28;20017;-79
2020/12/21 12:06:11;;;;;;;11.93;3.92;;;8.40;90.60;;;;;;5062928;28;20384;-77
2020/12/21 12:08:37;;;;;;;13.95;4.07;;;8.40;90.70;;;;;;5061240;28;20044;-80
2020/12/21 12:11:03;;;;;;;10.68;4.45;;;8.40;90.60;;;;;;5052494;28;20457;-80
2020/12/21 12:13:29;;;;;;;7.22;3.00;;;8.40;90.60;;;;;;5051292;28;20020;-80
2020/12/21 12:15:54;;;;;;;7.82;2.75;;;8.40;90.60;;;;;;5052573;28;20024;-83
2020/12/21 12:18:20;;;;;;;11.10;4.07;;;8.40;90.60;;;;;;5050983;28;20025;-82
2020/12/21 12:20:46;;;;;;;11.35;3.45;;;8.50;90.60;;;;;;5051106;28;20024;-81
2020/12/21 12:23:11;;;;;;;12.68;4.38;;;8.50;90.70;;;;;;5050871;28;20056;-81
2020/12/21 12:25:37;;;;;;;14.25;4.97;;;8.50;90.70;;;;;;5050968;28;20052;-81
2020/12/21 12:28:02;;;;;;;10.60;3.45;;;8.50;90.80;;;;;;5050820;28;20024;-79
2020/12/21 12:30:28;;;;;;;15.07;4.97;;;8.40;90.90;;;;;;5050862;28;20037;-78
2020/12/21 12:32:53;;;;;;;7.95;3.90;;;8.40;91.00;;;;;;5052436;28;20025;-78
2020/12/21 12:35:19;;;;;;;10.52;3.88;;;8.40;91.00;;;;;;5050715;28;20032;-78
2020/12/21 12:37:45;;;;;;;13.05;5.15;;;8.40;91.10;;;;;;5050960;28;20043;-77
2020/12/21 12:40:10;;;;;;;13.75;4.68;;;8.50;91.20;;;;;;5051984;28;20134;-78
2020/12/21 12:42:36;;;;;;;11.35;4.18;;;8.50;91.20;;;;;;5050862;28;20028;-78
2020/12/21 12:45:03;;;;;;;12.60;4.80;;;8.50;91.30;;;;;;5052183;28;20025;-78
2020/12/21 12:47:28;;;;;;;13.82;4.07;;;8.50;91.30;;;;;;5050507;28;20056;-78
2020/12/21 12:49:54;;;;;;;11.50;4.13;;;8.50;91.40;;;;;;5050779;28;20102;-78
2020/12/21 12:52:19;;;;;;;8.55;3.75;;;8.50;91.40;;;;;;5050639;28;20025;-78
2020/12/21 12:54:45;;;;;;;12.70;4.95;;;8.60;91.50;;;;;;5050809;28;20339;-79
2020/12/21 12:57:11;;;;;;;10.45;3.50;;;8.60;91.40;;;;;;5050491;28;20025;-79
2020/12/21 12:59:36;;;;;;;11.73;4.57;;;8.60;91.40;;;;;;5053283;28;20025;-78
2020/12/21 13:02:02;;;;;;;16.50;4.25;;;8.60;91.50;;;;;;5055494;28;20017;-77
2020/12/21 13:04:27;;;;;;;6.82;3.03;;;8.70;91.50;;;;;;5054649;28;20587;-77
2020/12/21 13:06:53;;;;;;;16.45;4.03;;;8.70;92.00;;;;;;5054719;28;20108;-77
2020/12/21 13:09:18;;;;;;;10.27;4.18;;;8.70;92.10;;;;;;5054503;28;20421;-77
2020/12/21 13:11:44;;;;;;;13.23;4.28;;;8.80;92.10;;;;;;5054643;28;20509;-76
2020/12/21 13:14:09;;;;;;;10.05;3.50;;;8.80;91.70;;;;;;5055479;28;20480;-78
2020/12/21 13:16:39;;;;;;;15.73;5.97;;;8.80;91.50;;;;;;5054656;28;20064;-79
2020/12/21 13:19:05;;;;;;;11.85;5.72;;;8.80;91.30;;;;;;5054295;28;20059;-81
2020/12/21 13:21:31;;;;;;;12.20;5.10;;;8.90;91.40;;;;;;5055530;28;20021;-80
2020/12/21 13:23:57;;;;;;;11.98;4.07;;;8.90;91.40;;;;;;5054364;28;20449;-83
2020/12/21 13:26:22;;;;;;;13.00;4.47;;;9.00;91.70;;;;;;5055159;28;20526;-80
2020/12/21 13:28:48;;;;;;;10.90;3.53;;;8.90;91.50;;;;;;5055307;28;20047;-81
2020/12/21 13:31:15;;;;;;;14.20;4.70;;;9.00;91.60;;;;;;5053676;28;20040;-79
2020/12/21 13:33:41;;;;;;;12.18;4.82;;;9.00;91.70;;;;;;5054146;28;20024;-78
2020/12/21 13:36:08;;;;;;;8.25;3.70;;;9.00;91.50;;;;;;5053857;28;20071;-77
2020/12/21 13:38:38;;;;;;;15.90;4.85;;;9.00;91.50;;;;;;5054023;28;20024;-78
2020/12/21 13:41:04;;;;;;;13.85;4.00;;;9.00;91.70;;;;;;5053833;28;20017;-78
2020/12/21 13:43:30;;;;;;;11.43;4.93;;;9.00;91.70;;;;;;5053969;28;20044;-78
2020/12/21 13:45:55;;;;;;;8.10;3.65;;;9.00;91.10;;;;;;5054055;28;20469;-78
2020/12/21 13:48:21;;;;;;;11.52;3.70;;;9.00;91.70;;;;;;5053733;28;20465;-77
2020/12/21 13:50:46;;;;;;;11.15;4.72;;;9.00;91.80;;;;;;5053935;28;20032;-77
2020/12/21 13:53:12;;;;;;;17.05;5.18;;;9.00;91.70;;;;;;5053586;28;20017;-77
2020/12/21 13:55:37;;;;;;;12.10;3.38;;;9.00;91.80;;;;;;5072855;28;20051;-77
2020/12/21 13:58:03;;;;;;;11.07;4.32;;;9.00;91.60;;;;;;5061704;28;20017;-77
2020/12/21 14:00:28;;;;;;;9.48;3.88;;;9.10;92.20;;;;;;5053723;28;20017;-78
2020/12/21 14:02:54;;;;;;;13.00;4.68;;;9.10;92.10;;;;;;5053692;28;20021;-77